Time;durP1;ratioP1;P1;durP2;ratioP2;P2;SDS_P1;SDS_P2;PMS_P1;PMS_P2;Temp;Humidity;BMP_temperature;BMP_pressure;BME280_temperature;BME280_humidity;BME280_pressure;Samples;Min_cycle;Max_cycle;Signal;HPM_P1;HPM_P2
2023/10/14 00:02:21;;;;;;;23.02;20.98;;;13.80;99.90;;;;;;6258756;22;20022;-89
2023/10/14 00:04:41;;;;;;;18.38;16.92;;;13.80;99.90;;;;;;6284125;22;20528;-89
2023/10/14 00:07:08;;;;;;;20.35;17.98;;;13.70;99.90;;;;;;6258723;22;20309;-89
2023/10/14 00:09:36;;;;;;;16.50;14.80;;;13.60;99.90;;;;;;6258430;22;20027;-89
2023/10/14 00:12:12;;;;;;;21.17;19.13;;;13.60;99.90;;;;;;6259439;22;20030;-90
2023/10/14 00:14:40;;;;;;;27.13;24.48;;;13.50;99.90;;;;;;6258792;22;20012;-88
2023/10/14 00:17:12;;;;;;;24.52;22.15;;;13.50;99.90;;;;;;6259390;22;20119;-88
2023/10/14 00:19:38;;;;;;;28.10;26.02;;;13.70;99.90;;;;;;6259749;22;20012;-89
2023/10/14 00:22:05;;;;;;;47.40;44.03;;;13.40;99.90;;;;;;6261130;22;20370;-87
2023/10/14 00:24:33;;;;;;;26.40;24.15;;;13.10;99.90;;;;;;6260227;22;20386;-88
2023/10/14 00:26:59;;;;;;;31.98;29.42;;;13.80;99.90;;;;;;6259295;22;20063;-88
2023/10/14 00:29:29;;;;;;;40.25;37.35;;;13.20;99.90;;;;;;6260658;22;20008;-89
2023/10/14 00:31:54;;;;;;;30.77;27.88;;;13.10;99.90;;;;;;6260585;22;20015;-89
2023/10/14 00:34:22;;;;;;;30.88;28.27;;;13.10;99.90;;;;;;6259675;22;20016;-89
2023/10/14 00:36:47;;;;;;;33.85;31.00;;;13.10;99.90;;;;;;6260331;22;20103;-87
2023/10/14 00:39:15;;;;;;;30.52;28.00;;;13.50;99.90;;;;;;6259495;22;20250;-87
2023/10/14 00:41:42;;;;;;;36.08;33.25;;;12.80;99.90;;;;;;6258902;22;20016;-88
2023/10/14 00:44:09;;;;;;;35.30;32.22;;;12.80;99.90;;;;;;6259824;22;20008;-89
2023/10/14 00:46:42;;;;;;;34.88;31.45;;;13.40;99.90;;;;;;6260758;22;20011;-88
2023/10/14 00:49:11;;;;;;;39.55;35.78;;;12.70;99.90;;;;;;6258944;22;20050;-89
2023/10/14 00:51:43;;;;;;;30.85;28.02;;;13.00;99.90;;;;;;6263354;22;20051;-88
2023/10/14 00:54:18;;;;;;;34.78;31.80;;;12.70;99.90;;;;;;6275391;22;20031;-89
2023/10/14 00:56:46;;;;;;;31.33;28.85;;;12.60;99.90;;;;;;6269789;22;20023;-88
2023/10/14 00:59:11;;;;;;;34.13;31.83;;;12.70;99.90;;;;;;6263968;22;20095;-89
2023/10/14 01:01:55;;;;;;;27.80;24.95;;;12.90;99.90;;;;;;6264484;22;20023;-89
2023/10/14 01:04:27;;;;;;;39.58;36.45;;;12.60;99.90;;;;;;6264724;22;20042;-89
2023/10/14 01:07:03;;;;;;;38.95;35.88;;;12.60;99.90;;;;;;6261761;22;20058;-89
2023/10/14 01:09:52;;;;;;;33.15;30.02;;;12.40;99.90;;;;;;6260873;22;20012;-88
2023/10/14 01:12:26;;;;;;;34.75;31.35;;;12.40;99.90;;;;;;6259822;22;20011;-87
2023/10/14 01:14:53;;;;;;;49.55;45.47;;;12.30;99.90;;;;;;6259429;22;20019;-89
2023/10/14 01:17:32;;;;;;;32.60;29.42;;;12.50;99.90;;;;;;6259981;22;20023;-87
2023/10/14 01:22:41;;;;;;;55.20;50.40;;;12.10;99.90;;;;;;6283968;22;20024;-91
2023/10/14 01:25:12;;;;;;;48.58;45.03;;;12.00;99.90;;;;;;6259747;22;20026;-88
2023/10/14 01:27:42;;;;;;;37.03;33.63;;;12.00;99.90;;;;;;6258737;22;20015;-89
2023/10/14 01:30:18;;;;;;;39.65;36.60;;;12.20;99.90;;;;;;6258285;22;20015;-87
2023/10/14 01:35:22;;;;;;;35.83;32.60;;;11.70;99.90;;;;;;6284063;22;20050;-87
2023/10/14 01:37:48;;;;;;;35.97;32.78;;;11.70;99.90;;;;;;6259153;22;20016;-90
2023/10/14 01:40:24;;;;;;;49.92;46.10;;;11.60;99.90;;;;;;6258016;22;20019;-88
2023/10/14 01:42:58;;;;;;;39.33;35.63;;;11.60;99.90;;;;;;6258261;22;20329;-89
2023/10/14 01:45:30;;;;;;;44.72;41.00;;;11.50;99.90;;;;;;6260011;22;20022;-88
2023/10/14 01:48:30;;;;;;;62.00;57.27;;;11.70;99.90;;;;;;6258809;22;20250;-88
2023/10/14 01:50:54;;;;;;;47.30;43.33;;;11.50;99.90;;;;;;6279987;22;20099;-88
2023/10/14 01:53:23;;;;;;;54.53;50.40;;;11.60;99.90;;;;;;6258857;22;20012;-89
2023/10/14 01:55:55;;;;;;;43.17;39.88;;;12.20;99.90;;;;;;6260148;22;20019;-86
2023/10/14 01:58:30;;;;;;;53.30;49.35;;;11.30;99.90;;;;;;6258491;22;20061;-89
2023/10/14 02:01:41;;;;;;;49.47;45.65;;;11.60;99.90;;;;;;6259403;22;20022;-88
2023/10/14 02:03:56;;;;;;;50.30;45.85;;;10.70;99.90;;;;;;6279423;22;20023;-88
2023/10/14 02:06:32;;;;;;;48.53;44.80;;;11.70;99.90;;;;;;6259094;22;20195;-87
2023/10/14 02:08:58;;;;;;;53.35;49.60;;;10.90;99.90;;;;;;6258523;22;20027;-88
2023/10/14 02:11:24;;;;;;;53.40;48.72;;;11.10;99.90;;;;;;6260673;22;20028;-87
2023/10/14 02:13:51;;;;;;;57.25;53.05;;;11.00;99.90;;;;;;6259853;22;20047;-89
2023/10/14 02:16:24;;;;;;;57.22;52.90;;;11.00;99.90;;;;;;6259782;22;20011;-89
2023/10/14 02:18:49;;;;;;;53.67;49.50;;;11.00;99.90;;;;;;6258310;22;20031;-89
2023/10/14 02:21:18;;;;;;;57.78;53.83;;;10.40;99.90;;;;;;6258992;22;20015;-88
2023/10/14 02:23:45;;;;;;;61.42;56.45;;;10.90;99.90;;;;;;6258056;22;20008;-89
2023/10/14 02:26:32;;;;;;;51.97;48.15;;;11.40;99.90;;;;;;6257502;22;20047;-88
2023/10/14 02:28:58;;;;;;;53.33;48.63;;;10.80;99.90;;;;;;6257482;22;20046;-88
2023/10/14 02:31:29;;;;;;;51.42;47.55;;;10.80;99.90;;;;;;6258369;22;20397;-88
2023/10/14 02:34:04;;;;;;;53.35;48.97;;;11.00;99.90;;;;;;6258019;22;20022;-89
2023/10/14 02:36:29;;;;;;;57.90;53.20;;;11.50;99.90;;;;;;6258624;22;20012;-88
2023/10/14 02:38:59;;;;;;;50.20;46.13;;;10.60;99.90;;;;;;6257697;22;20007;-88
2023/10/14 02:41:32;;;;;;;58.58;53.47;;;11.30;99.90;;;;;;6257814;22;20023;-89
2023/10/14 02:44:44;;;;;;;46.38;42.10;;;11.40;99.90;;;;;;6259365;22;20015;-88
2023/10/14 02:46:54;;;;;;;54.50;50.30;;;11.10;99.90;;;;;;6271540;22;20481;-88
2023/10/14 02:49:24;;;;;;;53.38;49.38;;;10.50;99.90;;;;;;6258299;22;20011;-88
2023/10/14 02:51:52;;;;;;;50.72;46.45;;;10.50;99.90;;;;;;6257887;22;20011;-89
2023/10/14 02:54:27;;;;;;;56.60;52.30;;;10.40;99.90;;;;;;6256978;22;20038;-89
2023/10/14 02:56:59;;;;;;;41.03;35.38;;;10.50;99.90;;;;;;6257452;22;20016;-89
2023/10/14 02:59:48;;;;;;;60.25;54.67;;;10.40;99.90;;;;;;6258100;22;20007;-88
2023/10/14 03:02:25;;;;;;;68.28;63.60;;;10.40;99.90;;;;;;6282839;22;20015;-87
2023/10/14 03:07:29;;;;;;;58.13;53.28;;;10.50;99.90;;;;;;6282704;22;20056;-88
2023/10/14 03:12:48;;;;;;;60.78;56.53;;;10.40;99.90;;;;;;6282900;22;20020;-88
2023/10/14 03:15:22;;;;;;;43.67;39.92;;;11.00;99.90;;;;;;6256616;22;20003;-89
2023/10/14 03:18:01;;;;;;;61.92;57.03;;;10.30;99.90;;;;;;6258910;22;20015;-88
2023/10/14 03:23:23;;;;;;;45.67;41.78;;;10.30;99.90;;;;;;6282206;22;20015;-88
2023/10/14 03:26:00;;;;;;;54.75;50.42;;;10.30;99.90;;;;;;6256740;22;20018;-89
2023/10/14 03:28:27;;;;;;;47.17;43.10;;;10.40;99.90;;;;;;6257498;22;20027;-89
2023/10/14 03:30:58;;;;;;;50.35;46.25;;;10.60;99.90;;;;;;6257117;22;20015;-89
2023/10/14 03:33:29;;;;;;;49.95;46.03;;;10.30;99.90;;;;;;6257786;22;20016;-86
2023/10/14 03:35:57;;;;;;;52.85;48.38;;;10.20;99.90;;;;;;6258500;22;20012;-89
2023/10/14 03:41:21;;;;;;;58.90;54.13;;;10.20;99.90;;;;;;6282888;22;20016;-88
2023/10/14 03:43:58;;;;;;;42.80;38.85;;;10.10;99.90;;;;;;6258776;22;20016;-89
2023/10/14 03:46:33;;;;;;;38.53;35.20;;;10.50;99.90;;;;;;6257297;22;20008;-89
2023/10/14 03:49:06;;;;;;;50.40;46.75;;;10.50;99.90;;;;;;6257671;22;20046;-88
2023/10/14 03:51:32;;;;;;;46.67;42.28;;;10.00;99.90;;;;;;6257786;22;20067;-89
2023/10/14 03:54:07;;;;;;;47.63;43.47;;;10.20;99.90;;;;;;6259942;22;20022;-88
2023/10/14 03:56:34;;;;;;;64.47;59.38;;;10.00;99.90;;;;;;6259967;22;20022;-89
2023/10/14 03:59:01;;;;;;;54.08;49.67;;;10.00;99.90;;;;;;6259573;22;20046;-88
2023/10/14 04:01:43;;;;;;;43.05;39.20;;;10.40;99.90;;;;;;6260603;22;20038;-88
2023/10/14 04:04:19;;;;;;;50.15;45.50;;;10.40;99.90;;;;;;6260702;22;20011;-88
2023/10/14 04:09:40;;;;;;;69.00;63.70;;;9.80;99.90;;;;;;6302456;22;20023;-88
2023/10/14 04:12:11;;;;;;;65.88;60.55;;;9.80;99.90;;;;;;6262051;22;20017;-88
2023/10/14 04:14:40;;;;;;;42.28;38.30;;;10.80;99.90;;;;;;6263116;22;20092;-89
2023/10/14 04:19:46;;;;;;;50.92;47.00;;;10.60;99.90;;;;;;6296421;22;20047;-87
2023/10/14 04:25:08;;;;;;;40.05;36.78;;;10.10;99.90;;;;;;6289488;22;20342;-88
2023/10/14 04:27:45;;;;;;;80.53;74.70;;;10.50;99.90;;;;;;6264426;22;20011;-89
2023/10/14 04:30:21;;;;;;;60.85;56.25;;;9.70;99.90;;;;;;6262660;22;20170;-89
2023/10/14 04:35:23;;;;;;;46.85;42.53;;;9.70;99.90;;;;;;6284473;22;20035;-89
2023/10/14 04:37:51;;;;;;;56.08;51.53;;;8.90;99.90;;;;;;6258696;22;20012;-89
2023/10/14 04:43:02;;;;;;;45.33;41.22;;;9.60;99.90;;;;;;6284254;22;20034;-86
2023/10/14 04:45:31;;;;;;;52.58;48.42;;;10.00;99.90;;;;;;6258966;22;20101;-89
2023/10/14 04:47:58;;;;;;;56.75;52.50;;;9.30;99.90;;;;;;6259430;22;20077;-87
2023/10/14 04:50:24;;;;;;;43.08;38.60;;;9.40;99.90;;;;;;6259324;22;20085;-88
2023/10/14 04:52:50;;;;;;;42.60;38.80;;;9.30;99.90;;;;;;6262137;22;20084;-88
2023/10/14 05:00:32;;;;;;;40.22;35.63;;;9.40;99.90;;;;;;6275122;22;20438;-89
2023/10/14 05:02:59;;;;;;;42.17;38.53;;;9.40;99.90;;;;;;6248481;22;20661;-88
2023/10/14 05:05:33;;;;;;;42.63;38.45;;;10.20;99.90;;;;;;6248942;22;20022;-89
2023/10/14 05:07:59;;;;;;;;;;;9.40;99.90;;;;;;6249509;22;20457;-89
2023/10/14 05:10:28;;;;;;;36.78;30.38;;;9.30;99.90;;;;;;6248872;22;19911;-89
2023/10/14 05:12:55;;;;;;;33.33;25.95;;;9.40;99.90;;;;;;6251717;22;20011;-87
2023/10/14 05:15:25;;;;;;;40.50;36.70;;;9.70;99.90;;;;;;6270144;22;20011;-88
2023/10/14 05:18:00;;;;;;;52.25;47.22;;;9.40;99.90;;;;;;6269232;22;20015;-88
2023/10/14 05:21:20;;;;;;;38.63;35.08;;;9.20;99.90;;;;;;6269088;22;20046;-88
2023/10/14 05:23:19;;;;;;;57.35;53.08;;;9.40;99.90;;;;;;6283044;22;20023;-88
2023/10/14 05:25:48;;;;;;;33.88;28.15;;;9.80;99.90;;;;;;6269107;22;20007;-87
2023/10/14 05:28:16;;;;;;;40.17;36.42;;;9.10;99.90;;;;;;6265769;22;20067;-86
2023/10/14 05:30:46;;;;;;;48.88;44.70;;;9.10;99.90;;;;;;6266254;22;20046;-87
2023/10/14 05:33:14;;;;;;;55.42;51.25;;;9.10;99.90;;;;;;6269148;22;20020;-88
2023/10/14 05:35:44;;;;;;;52.50;47.85;;;9.10;99.90;;;;;;6269869;22;20042;-88
2023/10/14 05:38:10;;;;;;;29.25;26.58;;;9.20;99.90;;;;;;6270140;22;20050;-88
2023/10/14 05:40:40;;;;;;;28.58;25.70;;;9.30;99.90;;;;;;6270014;22;20043;-88
2023/10/14 05:43:07;;;;;;;37.88;33.92;;;9.10;99.90;;;;;;6270359;22;20067;-87
2023/10/14 05:45:37;;;;;;;43.30;39.53;;;9.20;99.90;;;;;;6270102;22;20018;-87
2023/10/14 05:48:04;;;;;;;35.53;31.75;;;9.00;99.90;;;;;;6294874;22;20015;-87
2023/10/14 05:50:31;;;;;;;64.10;59.03;;;9.00;99.90;;;;;;6269907;22;20007;-88
2023/10/14 05:52:57;;;;;;;30.45;27.60;;;9.30;99.90;;;;;;6270324;22;20008;-88
2023/10/14 05:55:23;;;;;;;35.90;32.45;;;9.00;99.90;;;;;;6270805;22;20046;-88
2023/10/14 05:57:49;;;;;;;42.85;31.60;;;8.90;99.90;;;;;;6270384;22;20015;-88
2023/10/14 06:00:21;;;;;;;52.78;48.45;;;8.90;99.90;;;;;;6270891;22;20016;-89
2023/10/14 06:02:49;;;;;;;40.22;32.88;;;8.90;99.90;;;;;;6270909;22;20449;-89
2023/10/14 06:05:18;;;;;;;44.45;40.30;;;9.10;99.90;;;;;;6268864;22;20012;-89
2023/10/14 06:07:48;;;;;;;32.55;28.73;;;8.80;99.90;;;;;;6270404;22;20026;-88
2023/10/14 06:10:23;;;;;;;32.92;28.38;;;8.90;99.90;;;;;;6269618;22;20046;-88
2023/10/14 06:12:53;;;;;;;43.25;38.97;;;8.90;99.90;;;;;;6270408;22;20065;-88
2023/10/14 06:15:19;;;;;;;27.98;24.55;;;9.00;99.90;;;;;;6270284;22;20011;-88
2023/10/14 06:17:46;;;;;;;37.85;34.25;;;9.20;99.90;;;;;;6270991;22;20038;-87
2023/10/14 06:20:14;;;;;;;47.78;43.33;;;8.90;99.90;;;;;;6271351;22;20237;-88
2023/10/14 06:22:48;;;;;;;27.58;24.67;;;9.00;99.90;;;;;;6271231;22;20063;-89
2023/10/14 06:25:16;;;;;;;43.33;39.03;;;8.90;99.90;;;;;;6270883;22;20011;-88
2023/10/14 06:27:46;;;;;;;38.03;30.75;;;8.90;99.90;;;;;;6270669;22;20086;-87
2023/10/14 06:30:19;;;;;;;50.53;46.22;;;10.00;99.90;;;;;;6270535;22;20022;-93
2023/10/14 06:33:15;;;;;;;28.77;24.17;;;9.00;99.90;;;;;;6268102;22;20054;-91
2023/10/14 06:35:42;;;;;;;44.40;40.28;;;10.00;99.90;;;;;;6298177;22;20024;-88
2023/10/14 06:38:10;;;;;;;31.83;27.83;;;8.60;99.90;;;;;;6270306;22;20015;-88
2023/10/14 06:40:36;;;;;;;54.67;50.30;;;9.30;99.90;;;;;;6270856;22;20003;-88
2023/10/14 06:43:09;;;;;;;39.88;36.10;;;10.10;99.90;;;;;;6273594;22;20035;-91
2023/10/14 06:45:38;;;;;;;45.55;41.10;;;9.10;99.90;;;;;;6272676;22;20018;-88
2023/10/14 06:48:09;;;;;;;37.03;33.50;;;9.20;99.90;;;;;;6273222;22;20016;-90
2023/10/14 06:50:38;;;;;;;42.83;38.75;;;9.20;99.90;;;;;;6273077;22;20012;-90
2023/10/14 06:53:10;;;;;;;38.35;30.23;;;9.20;99.90;;;;;;6246891;22;20024;-88
2023/10/14 06:55:39;;;;;;;62.05;57.25;;;9.70;99.90;;;;;;6271475;22;20067;-90
2023/10/14 06:58:06;;;;;;;36.42;32.83;;;9.30;99.90;;;;;;6272607;22;20000;-90
2023/10/14 07:00:32;;;;;;;41.03;37.17;;;9.60;99.90;;;;;;6273134;22;20103;-91
2023/10/14 07:02:59;;;;;;;36.22;33.00;;;9.40;99.90;;;;;;6272316;22;20012;-89
2023/10/14 07:05:29;;;;;;;42.83;38.72;;;9.00;99.90;;;;;;6273103;22;19999;-90
2023/10/14 07:07:58;;;;;;;37.67;34.28;;;9.40;99.90;;;;;;6273304;22;20074;-89
2023/10/14 07:10:32;;;;;;;38.10;34.25;;;9.50;99.90;;;;;;6271555;22;20334;-90
2023/10/14 07:13:03;;;;;;;58.75;54.33;;;10.40;99.90;;;;;;6272300;22;20067;-90
2023/10/14 07:15:31;;;;;;;40.15;36.38;;;10.40;99.90;;;;;;6248373;22;20043;-90
2023/10/14 07:17:58;;;;;;;44.80;40.50;;;9.70;99.90;;;;;;6272640;22;20027;-92
2023/10/14 07:20:29;;;;;;;30.48;27.60;;;10.80;99.90;;;;;;6271856;22;20023;-91
2023/10/14 07:22:59;;;;;;;39.92;35.78;;;9.90;99.90;;;;;;6271554;22;20000;-87
2023/10/14 07:25:25;;;;;;;47.85;44.13;;;9.90;99.90;;;;;;6270329;22;20012;-89
2023/10/14 07:27:52;;;;;;;52.08;47.55;;;10.40;99.90;;;;;;6269089;22;20031;-87
2023/10/14 07:30:19;;;;;;;39.97;36.10;;;11.00;99.90;;;;;;6268544;22;20016;-88
2023/10/14 07:32:47;;;;;;;49.55;45.08;;;10.10;99.90;;;;;;6270267;22;20007;-88
2023/10/14 07:35:15;;;;;;;41.85;37.75;;;10.80;99.90;;;;;;6270594;22;20007;-89
2023/10/14 07:37:43;;;;;;;43.35;39.33;;;10.20;99.90;;;;;;6270929;22;20054;-89
2023/10/14 07:40:22;;;;;;;49.70;45.65;;;10.40;99.90;;;;;;6272162;22;20299;-89
2023/10/14 07:43:05;;;;;;;41.90;37.45;;;10.30;99.90;;;;;;6272181;22;20008;-87
2023/10/14 07:45:33;;;;;;;44.80;41.28;;;10.30;99.90;;;;;;6271724;22;20035;-90
2023/10/14 07:48:22;;;;;;;43.85;39.78;;;10.70;99.90;;;;;;6274111;22;20000;-92
2023/10/14 07:51:23;;;;;;;39.92;36.28;;;10.00;99.90;;;;;;6274132;22;20003;-91
2023/10/14 07:53:48;;;;;;;37.65;32.17;;;10.80;99.90;;;;;;6275050;22;20019;-92
2023/10/14 07:56:15;;;;;;;44.35;40.33;;;10.70;99.90;;;;;;6273909;22;20011;-91
2023/10/14 07:58:41;;;;;;;51.17;47.17;;;10.90;99.90;;;;;;6248370;22;20012;-91
2023/10/14 08:01:09;;;;;;;51.67;46.95;;;11.10;99.90;;;;;;6273400;22;20007;-91
2023/10/14 08:03:36;;;;;;;43.70;40.00;;;11.70;99.90;;;;;;6273408;22;20059;-91
2023/10/14 08:06:06;;;;;;;56.20;52.10;;;11.20;99.90;;;;;;6249360;22;20039;-92
2023/10/14 08:08:53;;;;;;;54.17;50.03;;;11.80;99.90;;;;;;6250586;22;20000;-90
2023/10/14 08:11:21;;;;;;;54.03;50.17;;;11.30;99.90;;;;;;6274925;22;20071;-92
2023/10/14 08:13:47;;;;;;;56.42;52.05;;;11.40;99.90;;;;;;6274312;22;20011;-90
2023/10/14 08:16:47;;;;;;;54.90;49.97;;;11.20;99.90;;;;;;6274400;22;20045;-92
2023/10/14 08:19:14;;;;;;;54.45;49.80;;;11.20;99.90;;;;;;6254459;22;20015;-92
2023/10/14 08:21:40;;;;;;;53.45;48.90;;;11.90;99.90;;;;;;6274800;22;20015;-93
2023/10/14 08:24:14;;;;;;;50.65;46.63;;;11.20;99.90;;;;;;6300554;22;20015;-92
2023/10/14 08:26:40;;;;;;;;;;;11.70;99.90;;;;;;6275686;22;20003;-93
2023/10/14 08:29:06;;;;;;;48.40;44.50;;;12.10;99.90;;;;;;6275131;22;19955;-89
2023/10/14 08:31:32;;;;;;;58.22;53.70;;;12.00;99.90;;;;;;6273636;22;20022;-89
2023/10/14 08:33:59;;;;;;;56.65;52.05;;;12.10;99.90;;;;;;6248154;22;20012;-91
2023/10/14 08:36:26;;;;;;;53.13;46.80;;;12.30;99.90;;;;;;6273370;22;20019;-92
2023/10/14 08:38:52;;;;;;;64.55;59.70;;;12.20;99.90;;;;;;6274847;22;20022;-90
2023/10/14 08:41:18;;;;;;;49.38;45.22;;;11.70;99.90;;;;;;6275502;22;20000;-91
2023/10/14 08:43:49;;;;;;;59.45;55.13;;;11.40;99.90;;;;;;6275779;22;20022;-90
2023/10/14 08:46:23;;;;;;;63.80;58.38;;;12.10;99.90;;;;;;6276335;22;20055;-87
2023/10/14 08:48:51;;;;;;;55.58;51.15;;;11.40;99.90;;;;;;6254159;22;20004;-88
2023/10/14 08:54:00;;;;;;;52.30;48.45;;;11.50;99.90;;;;;;6303646;22;20019;-90
2023/10/14 08:56:26;;;;;;;54.88;50.08;;;12.40;99.90;;;;;;6279091;22;20028;-91
2023/10/14 08:58:52;;;;;;;57.60;52.97;;;11.70;99.90;;;;;;6276773;22;20042;-92
2023/10/14 09:01:22;;;;;;;38.78;35.15;;;12.40;99.90;;;;;;6275619;22;20015;-90
2023/10/14 09:03:49;;;;;;;38.83;34.78;;;11.70;99.90;;;;;;6300783;22;20008;-91
2023/10/14 09:06:16;;;;;;;55.00;51.03;;;12.40;99.90;;;;;;6275680;22;20019;-91
2023/10/14 09:08:44;;;;;;;28.23;25.33;;;12.20;99.90;;;;;;6275452;22;20007;-92
2023/10/14 09:11:33;;;;;;;37.45;34.15;;;12.70;99.90;;;;;;6275063;22;20213;-91
2023/10/14 09:14:04;;;;;;;32.88;30.08;;;11.90;99.90;;;;;;6274118;22;20020;-89
2023/10/14 09:16:34;;;;;;;36.90;33.28;;;12.10;99.90;;;;;;6274159;22;20019;-89
2023/10/14 09:19:01;;;;;;;30.45;27.15;;;12.60;99.90;;;;;;6273949;22;20016;-89
2023/10/14 09:21:28;;;;;;;35.78;32.22;;;12.60;99.90;;;;;;6274228;22;19999;-88
2023/10/14 09:23:54;;;;;;;46.00;42.65;;;12.60;99.90;;;;;;6273531;22;20012;-88
2023/10/14 09:26:21;;;;;;;27.98;24.08;;;12.60;99.90;;;;;;6273609;22;20094;-91
2023/10/14 09:28:48;;;;;;;37.35;33.90;;;12.70;99.90;;;;;;6274441;22;20007;-92
2023/10/14 09:31:14;;;;;;;27.75;25.25;;;12.70;99.90;;;;;;6275068;22;20016;-90
2023/10/14 09:33:45;;;;;;;30.73;27.80;;;13.40;99.90;;;;;;6275268;22;20026;-91
2023/10/14 09:36:14;;;;;;;24.77;22.42;;;12.80;99.90;;;;;;6275436;22;20019;-91
2023/10/14 09:38:43;;;;;;;41.75;38.55;;;13.20;99.90;;;;;;6275177;22;20016;-93
2023/10/14 09:41:10;;;;;;;37.22;34.20;;;12.90;99.90;;;;;;6249785;22;20056;-91
2023/10/14 09:43:46;;;;;;;41.85;38.65;;;12.80;99.90;;;;;;6274466;22;20050;-90
2023/10/14 09:46:15;;;;;;;37.92;34.78;;;12.80;99.90;;;;;;6274327;22;20022;-91
2023/10/14 09:48:43;;;;;;;39.47;36.35;;;12.50;99.90;;;;;;6273982;22;20038;-89
2023/10/14 09:51:12;;;;;;;26.05;23.63;;;12.80;99.90;;;;;;6270271;22;20012;-88
2023/10/14 09:53:38;;;;;;;31.17;28.38;;;12.90;99.90;;;;;;6272354;22;20018;-89
2023/10/14 09:56:09;;;;;;;35.00;32.00;;;12.90;99.90;;;;;;6272500;22;20026;-87
2023/10/14 09:58:46;;;;;;;45.33;41.78;;;12.90;99.90;;;;;;6273924;22;20263;-89
2023/10/14 10:01:18;;;;;;;23.38;19.92;;;13.00;99.90;;;;;;6274976;22;20049;-87
2023/10/14 10:03:50;;;;;;;38.33;34.72;;;13.00;99.90;;;;;;6273668;22;20007;-87
2023/10/14 10:06:43;;;;;;;33.17;30.60;;;13.10;99.90;;;;;;6274518;22;20030;-89
2023/10/14 10:09:49;;;;;;;42.60;39.47;;;13.30;99.90;;;;;;6276422;22;20026;-89
2023/10/14 10:12:20;;;;;;;37.70;34.58;;;13.50;99.90;;;;;;6275339;22;20019;-88
2023/10/14 10:14:56;;;;;;;23.63;21.20;;;13.80;99.90;;;;;;6276835;22;20015;-89
2023/10/14 10:17:24;;;;;;;23.30;21.15;;;14.10;99.90;;;;;;6275576;22;20045;-90
2023/10/14 10:20:12;;;;;;;30.95;25.33;;;14.50;99.90;;;;;;6273280;22;20070;-87
2023/10/14 10:22:50;;;;;;;35.25;31.73;;;14.50;99.90;;;;;;6265429;22;20081;-86
2023/10/14 10:25:20;;;;;;;32.95;30.00;;;14.10;99.90;;;;;;6273827;22;20011;-89
2023/10/14 10:27:55;;;;;;;30.10;27.40;;;13.70;99.90;;;;;;6274618;22;20022;-89
2023/10/14 10:30:22;;;;;;;27.75;25.40;;;13.80;99.90;;;;;;6297491;22;20038;-87
2023/10/14 10:32:51;;;;;;;38.22;35.17;;;13.10;99.90;;;;;;6270405;22;20011;-88
2023/10/14 10:35:21;;;;;;;27.20;25.10;;;12.70;99.90;;;;;;6297765;22;20034;-85
2023/10/14 10:37:50;;;;;;;25.02;22.42;;;12.00;99.90;;;;;;6295414;22;20018;-90
2023/10/14 10:40:27;;;;;;;31.02;28.63;;;12.30;99.90;;;;;;6271616;22;20422;-87
2023/10/14 10:42:57;;;;;;;31.48;29.08;;;12.20;99.90;;;;;;6255369;22;20011;-89
2023/10/14 10:45:29;;;;;;;28.90;26.85;;;12.40;99.90;;;;;;6255454;22;20325;-88
2023/10/14 10:48:00;;;;;;;38.53;36.03;;;12.20;99.90;;;;;;6255011;22;20023;-88
2023/10/14 10:50:27;;;;;;;39.35;36.75;;;12.60;99.90;;;;;;6255526;22;20037;-87
2023/10/14 10:53:06;;;;;;;36.58;33.97;;;12.20;99.90;;;;;;6252931;22;20025;-86
2023/10/14 10:55:36;;;;;;;40.65;37.75;;;12.20;99.90;;;;;;6278479;22;20071;-87
2023/10/14 10:58:02;;;;;;;30.70;28.52;;;12.90;99.90;;;;;;6252548;22;20008;-87
2023/10/14 11:00:32;;;;;;;30.23;28.05;;;12.30;99.90;;;;;;6254531;22;20384;-87
2023/10/14 11:03:00;;;;;;;32.22;29.83;;;12.50;99.90;;;;;;6253553;22;20042;-87
2023/10/14 11:05:27;;;;;;;27.05;24.90;;;12.50;99.90;;;;;;6252890;22;20157;-87
2023/10/14 11:07:53;;;;;;;33.25;30.52;;;12.50;99.90;;;;;;6253404;22;20065;-87
2023/10/14 11:10:38;;;;;;;47.50;43.92;;;13.00;99.90;;;;;;6252540;22;20018;-86
2023/10/14 11:13:07;;;;;;;26.63;24.42;;;12.60;99.90;;;;;;6279294;22;20015;-87
2023/10/14 11:15:34;;;;;;;28.95;26.63;;;12.70;99.90;;;;;;6254252;22;20019;-87
2023/10/14 11:18:00;;;;;;;24.95;22.45;;;12.80;99.90;;;;;;6279338;22;20033;-88
2023/10/14 11:20:31;;;;;;;27.75;24.98;;;13.00;99.90;;;;;;6251989;22;20057;-86
2023/10/14 11:22:58;;;;;;;35.25;31.88;;;13.20;99.90;;;;;;6252002;22;20018;-86
2023/10/14 11:25:24;;;;;;;22.73;20.73;;;13.40;99.90;;;;;;6252638;22;20512;-86
2023/10/14 11:27:49;;;;;;;21.63;19.48;;;13.70;99.90;;;;;;6278935;22;20019;-87
2023/10/14 11:30:15;;;;;;;37.95;34.50;;;14.00;99.90;;;;;;6253173;22;20098;-87
2023/10/14 11:32:49;;;;;;;37.70;34.70;;;14.00;99.90;;;;;;6252689;22;20012;-87
2023/10/14 11:35:16;;;;;;;27.92;25.40;;;14.00;99.90;;;;;;6253292;22;20041;-87
2023/10/14 11:37:48;;;;;;;34.20;30.98;;;13.80;99.90;;;;;;6279057;22;20441;-86
2023/10/14 11:40:15;;;;;;;33.97;30.85;;;13.60;99.90;;;;;;6253011;22;20437;-87
2023/10/14 11:42:42;;;;;;;26.63;24.25;;;13.30;99.90;;;;;;6254082;22;20087;-87
2023/10/14 11:45:08;;;;;;;26.23;22.58;;;13.60;99.90;;;;;;6278926;22;20007;-85
2023/10/14 11:47:39;;;;;;;26.45;20.92;;;13.00;99.90;;;;;;6277542;22;20095;-86
2023/10/14 11:50:12;;;;;;;47.63;43.45;;;12.90;99.90;;;;;;6255845;22;20069;-87
2023/10/14 11:52:42;;;;;;;36.67;32.95;;;12.70;99.90;;;;;;6273558;22;20019;-88
2023/10/14 11:55:14;;;;;;;26.23;23.90;;;13.00;99.90;;;;;;6274955;22;20011;-86
2023/10/14 11:57:49;;;;;;;34.15;31.33;;;13.10;99.90;;;;;;6298374;22;20193;-88
2023/10/14 12:00:20;;;;;;;34.70;31.45;;;12.50;99.90;;;;;;6297765;22;20067;-88
2023/10/14 12:02:49;;;;;;;31.17;28.35;;;12.50;99.90;;;;;;6260694;22;20152;-88
2023/10/14 12:05:16;;;;;;;29.63;27.02;;;13.00;99.90;;;;;;6251505;22;20076;-88
2023/10/14 12:07:49;;;;;;;32.50;29.63;;;12.70;99.90;;;;;;6250599;22;20007;-88
2023/10/14 12:10:17;;;;;;;29.08;26.30;;;12.70;99.90;;;;;;6275713;22;20053;-88
2023/10/14 12:12:51;;;;;;;26.42;23.55;;;12.80;99.90;;;;;;6252366;22;20258;-88
2023/10/14 12:15:17;;;;;;;35.28;32.65;;;12.80;99.90;;;;;;6284394;22;20009;-90
2023/10/14 12:17:45;;;;;;;27.15;24.77;;;12.90;99.90;;;;;;6259032;22;20062;-91
2023/10/14 12:20:11;;;;;;;34.78;31.52;;;13.50;99.90;;;;;;6283047;22;20011;-88
2023/10/14 12:22:41;;;;;;;30.23;27.90;;;12.90;99.90;;;;;;6256849;22;20012;-88
2023/10/14 12:25:08;;;;;;;28.58;25.02;;;13.40;99.90;;;;;;6257802;22;20087;-89
2023/10/14 12:27:35;;;;;;;23.17;20.55;;;12.80;99.90;;;;;;6257339;22;20067;-88
2023/10/14 12:30:01;;;;;;;29.02;26.30;;;12.90;99.90;;;;;;6282490;22;20019;-89
2023/10/14 12:32:30;;;;;;;29.85;27.38;;;12.90;99.90;;;;;;6257085;22;20007;-88
2023/10/14 12:34:59;;;;;;;35.38;32.22;;;12.80;99.90;;;;;;6279958;22;20012;-84
2023/10/14 12:37:26;;;;;;;30.92;26.63;;;13.20;99.90;;;;;;6274461;22;20046;-81
2023/10/14 12:40:11;;;;;;;28.77;26.13;;;12.80;99.90;;;;;;6274565;22;20057;-82
2023/10/14 12:42:49;;;;;;;23.48;21.15;;;12.60;99.90;;;;;;6249786;22;20033;-82
2023/10/14 12:45:23;;;;;;;25.45;21.00;;;13.00;99.90;;;;;;6275515;22;20015;-84
2023/10/14 12:47:49;;;;;;;27.40;24.65;;;13.10;99.90;;;;;;6278539;22;20045;-87
2023/10/14 12:50:19;;;;;;;37.55;33.97;;;13.20;99.90;;;;;;6316161;22;20039;-85
2023/10/14 12:52:49;;;;;;;36.63;33.30;;;13.40;99.90;;;;;;6273346;22;20028;-89
2023/10/14 12:55:22;;;;;;;33.60;30.60;;;12.90;99.90;;;;;;6268782;22;20042;-86
2023/10/14 12:57:49;;;;;;;32.35;29.25;;;13.00;99.90;;;;;;6300593;22;20023;-89
2023/10/14 13:00:36;;;;;;;24.50;21.90;;;13.00;99.90;;;;;;6277563;22;20019;-92
2023/10/14 13:03:23;;;;;;;31.02;28.25;;;12.90;99.90;;;;;;6255880;22;20091;-92
2023/10/14 13:05:52;;;;;;;25.27;22.58;;;13.00;99.90;;;;;;6276424;22;20031;-93
2023/10/14 13:08:21;;;;;;;35.65;32.42;;;13.00;99.90;;;;;;6253893;22;19999;-95
2023/10/14 13:11:07;;;;;;;39.65;35.97;;;13.10;99.90;;;;;;6303378;22;20059;-91
2023/10/14 13:13:34;;;;;;;31.50;28.60;;;13.40;99.90;;;;;;6277236;22;20039;-93
2023/10/14 13:16:02;;;;;;;35.13;31.65;;;13.60;99.90;;;;;;6276601;22;20000;-93
2023/10/14 13:18:49;;;;;;;22.08;19.40;;;13.70;99.90;;;;;;6250186;22;20010;-89
2023/10/14 13:21:18;;;;;;;21.20;11.25;;;13.40;99.90;;;;;;6275507;22;20075;-92
2023/10/14 13:23:46;;;;;;;30.92;25.02;;;13.70;99.90;;;;;;6273291;22;20004;-90
2023/10/14 13:26:16;;;;;;;21.17;15.05;;;13.80;99.90;;;;;;6273580;22;20027;-90
2023/10/14 13:28:45;;;;;;;20.73;14.02;;;13.50;99.90;;;;;;6270873;22;20022;-87